Home   Weather   India   Lunawada   Past weeks
Flag for India

Past Weather in Lunawada, Gujarat, India — Yesterday and Last 2 Weeks

Currently: 90 °F. Passing clouds. (Weather station: Ahmadabad Airport, India). See more current weather

Past Weather in Lunawada — Graph

°F

Lunawada Temperature Yesterday

Maximum temperature yesterday: 102 °F (at 5:30 pm)
Minimum temperature yesterday: 86 °F (at 4:00 am)
Average temperature yesterday: 92 °F

High & Low Weather Summary for the Past Weeks

 TemperatureHumidityPressure
High106 °F (Jun 7, 4:00 pm)94% (Jun 11, 12:30 am)29.77 "Hg (Jun 11, 12:30 am)
Low79 °F (Jun 11, 12:00 am)22% (Jun 9, 6:30 pm)29.50 "Hg (Jun 7, 6:30 pm)
Average93 °F50%29.64 "Hg
* Reported Jun 3 8:30 am — Jun 18 9:00 am, Lunawada. Weather by CustomWeather, © 2024

Note: Actual official high and low records may vary slightly from our data, if they occured in-between our weather recording intervals... More about our weather records

Lunawada Weather History for the Previous 24 Hours

Scroll right to see more
 ConditionsComfort  
Time TempWeatherWind HumidityBarometerVisibility
9:00 am
Tue, Jun 18
90 °FPassing clouds.8 mph59%29.65 "Hg3 mi
8:30 am88 °FPassing clouds.6 mph66%29.65 "Hg3 mi
8:00 am88 °FPassing clouds.10 mph62%29.65 "Hg3 mi
7:30 am88 °FHaze.12 mph62%29.62 "Hg2 mi
7:00 am88 °FHaze.13 mph62%29.62 "Hg2 mi
6:30 am86 °FScattered clouds.12 mph66%29.62 "Hg2 mi
6:00 am86 °FPassing clouds.9 mph66%29.62 "Hg2 mi
5:30 am88 °FHaze.9 mph62%29.62 "Hg2 mi
5:00 am88 °FPassing clouds.8 mph62%29.62 "Hg2 mi
4:30 am88 °FPassing clouds.9 mph62%29.59 "Hg2 mi
4:00 am88 °FPassing clouds.14 mph62%29.59 "Hg2 mi
3:30 am88 °FPassing clouds.13 mph62%29.59 "Hg2 mi
3:00 am88 °FPassing clouds.10 mph62%29.62 "Hg2 mi
2:30 am88 °FHaze.13 mph66%29.62 "Hg2 mi
2:00 am90 °FPassing clouds.12 mph63%29.62 "Hg2 mi
1:30 am90 °FClear.14 mph63%29.62 "Hg2 mi
1:00 am90 °FClear.8 mph59%29.62 "Hg2 mi
12:00 am91 °FClear.15 mph56%29.65 "Hg2 mi
11:30 pm
Mon, Jun 17
91 °FClear.13 mph52%29.65 "Hg2 mi
11:00 pm91 °FClear.14 mph52%29.65 "Hg2 mi
10:00 pm93 °FClear.15 mph49%29.62 "Hg2 mi
9:30 pm93 °FClear.16 mph53%29.62 "Hg2 mi
9:00 pm93 °FPassing clouds.17 mph53%29.59 "Hg2 mi
7:30 pm95 °FScattered clouds.12 mph50%29.56 "Hg2 mi
6:30 pm100 °FScattered clouds.6 mph35%29.56 "Hg4 mi
6:00 pm102 °FScattered clouds.2 mph33%29.53 "Hg4 mi
5:30 pm102 °FPassing clouds.6 mph33%29.53 "Hg4 mi
4:30 pm100 °FPassing clouds.6 mph35%29.56 "Hg4 mi
4:00 pm100 °FScattered clouds.5 mph35%29.56 "Hg4 mi
3:30 pm100 °FScattered clouds.5 mph35%29.59 "Hg4 mi
3:00 pm100 °FScattered clouds.3 mph35%29.59 "Hg4 mi
2:30 pm100 °FScattered clouds.7 mph35%29.62 "Hg4 mi
2:00 pm99 °FScattered clouds.6 mph39%29.62 "Hg4 mi
1:30 pm97 °FScattered clouds.6 mph42%29.65 "Hg4 mi
12:30 pm97 °FScattered clouds.8 mph44%29.65 "Hg4 mi
12:00 pm95 °FScattered clouds.8 mph47%29.65 "Hg4 mi
11:00 am93 °FScattered clouds.10 mph49%29.68 "Hg3 mi
10:30 am93 °FScattered clouds.8 mph53%29.68 "Hg3 mi
10:00 am91 °FScattered clouds.8 mph56%29.68 "Hg3 mi
Weather by CustomWeather, © 2024

See weather overview